createdAt,value
2023-05-15T00:01:16.834Z,101970.16
2023-05-15T00:04:06.592Z,101975.66
2023-05-15T00:06:57.263Z,101978.41
2023-05-15T00:09:46.453Z,101968.28
2023-05-15T00:12:36.783Z,101974.88
2023-05-15T00:15:26.374Z,101979.22
2023-05-15T00:18:16.133Z,101976.53
2023-05-15T00:21:05.776Z,101980.34
2023-05-15T00:23:58.460Z,101973.56
2023-05-15T00:26:47.688Z,101967.28
2023-05-15T00:29:36.992Z,101978.50
2023-05-15T00:32:26.398Z,101979.59
2023-05-15T00:35:16.025Z,101988.09
2023-05-15T00:38:05.286Z,101994.66
2023-05-15T00:40:57.252Z,101979.38
2023-05-15T00:43:46.855Z,101975.28
2023-05-15T00:46:39.400Z,101982.66
2023-05-15T00:49:30.788Z,101992.25
2023-05-15T00:52:21.520Z,101987.59
2023-05-15T00:55:11.454Z,101990.31
2023-05-15T00:58:03.639Z,101986.53
2023-05-15T01:00:55.214Z,101990.88
2023-05-15T01:03:45.181Z,101987.38
2023-05-15T01:06:34.485Z,101999.09
2023-05-15T01:09:26.845Z,101996.09
2023-05-15T01:12:18.186Z,102000.19
2023-05-15T01:15:10.158Z,101996.66
2023-05-15T01:17:59.491Z,101993.09
2023-05-15T01:21:19.697Z,101991.44
2023-05-15T01:24:33.014Z,101997.72
2023-05-15T01:27:31.590Z,102000.16
2023-05-15T01:30:28.414Z,101990.34
2023-05-15T01:33:23.611Z,102002.09
2023-05-15T01:36:20.590Z,101996.59
2023-05-15T01:39:12.270Z,101994.16
2023-05-15T01:42:08.969Z,102001.56
2023-05-15T01:45:03.212Z,101999.34
2023-05-15T01:47:55.858Z,102002.34
2023-05-15T01:50:46.940Z,101999.88
2023-05-15T01:53:37.862Z,102009.97
2023-05-15T01:56:28.470Z,102007.53
2023-05-15T01:59:20.620Z,102006.16
2023-05-15T02:02:12.278Z,101993.31
2023-05-15T02:05:02.720Z,102014.03
2023-05-15T02:07:52.486Z,102016.78
2023-05-15T02:10:42.784Z,102016.25
2023-05-15T02:13:33.298Z,102007.22
2023-05-15T02:16:22.883Z,102008.06
2023-05-15T02:19:13.734Z,102004.78
2023-05-15T02:22:03.743Z,102003.13
2023-05-15T02:24:53.387Z,102006.41
2023-05-15T02:27:52.614Z,102002.28
2023-05-15T02:30:50.740Z,102007.47
2023-05-15T02:33:52.945Z,102011.56
2023-05-15T02:36:48.966Z,102013.75
2023-05-15T02:39:40.102Z,102009.91
2023-05-15T02:42:30.934Z,102009.38
2023-05-15T02:45:21.858Z,102011.00
2023-05-15T02:48:11.271Z,102014.28
2023-05-15T02:51:01.684Z,102026.25
2023-05-15T02:53:53.276Z,102013.94
2023-05-15T02:56:42.953Z,102005.75
2023-05-15T02:59:32.267Z,102025.66
2023-05-15T03:02:21.630Z,102024.00
2023-05-15T03:05:11.361Z,102029.97
2023-05-15T03:08:01.705Z,102001.59
2023-05-15T03:10:52.569Z,102025.91
2023-05-15T03:13:42.343Z,102031.09
2023-05-15T03:16:31.634Z,102030.56
2023-05-15T03:19:21.034Z,102030.53
2023-05-15T03:22:10.234Z,102037.06
2023-05-15T03:25:01.874Z,102030.75
2023-05-15T03:27:52.821Z,102042.75
2023-05-15T03:30:44.919Z,102039.75
2023-05-15T03:33:34.128Z,102047.09
2023-05-15T03:36:23.730Z,102039.69
2023-05-15T03:39:12.982Z,102052.22
2023-05-15T03:42:02.292Z,102049.47
2023-05-15T03:44:53.110Z,102054.66
2023-05-15T03:47:43.038Z,102045.66
2023-05-15T03:50:32.709Z,102051.13
2023-05-15T03:53:22.095Z,102047.84
2023-05-15T03:56:11.377Z,102051.66
2023-05-15T03:59:00.668Z,102052.16
2023-05-15T04:02:03.618Z,102059.25
2023-05-15T04:04:53.875Z,102048.06
2023-05-15T04:07:43.185Z,102046.97
2023-05-15T04:10:33.816Z,102049.44
2023-05-15T04:13:22.987Z,102051.88
2023-05-15T04:16:12.186Z,102048.03
2023-05-15T04:19:02.967Z,102049.66
2023-05-15T04:21:52.338Z,102046.94
2023-05-15T04:24:41.812Z,102040.66
2023-05-15T04:27:31.038Z,102049.34
2023-05-15T04:30:20.768Z,102046.94
2023-05-15T04:33:09.996Z,102047.16
2023-05-15T04:36:02.012Z,102048.84
2023-05-15T04:38:51.749Z,102037.03
2023-05-15T04:41:40.951Z,102044.72
2023-05-15T04:44:30.244Z,102039.78
2023-05-15T04:47:19.482Z,102040.63
2023-05-15T04:50:09.833Z,102032.97
2023-05-15T04:53:00.405Z,102043.13
2023-05-15T04:55:51.456Z,102042.81
2023-05-15T04:58:40.638Z,102041.16
2023-05-15T05:01:30.568Z,102049.38
2023-05-15T05:04:20.266Z,102057.00
2023-05-15T05:07:09.618Z,102041.72
2023-05-15T05:10:00.332Z,102045.03
2023-05-15T05:12:49.633Z,102050.16
2023-05-15T05:15:38.947Z,102054.88
2023-05-15T05:18:28.315Z,102058.94
2023-05-15T05:21:17.650Z,102053.22
2023-05-15T05:24:07.180Z,102060.88
2023-05-15T05:26:58.447Z,102063.59
2023-05-15T05:29:47.741Z,102059.25
2023-05-15T05:32:37.003Z,102064.69
2023-05-15T05:35:28.296Z,102063.88
2023-05-15T05:38:17.551Z,102071.56
2023-05-15T05:41:06.805Z,102079.75
2023-05-15T05:43:57.389Z,102072.97
2023-05-15T05:46:46.608Z,102074.63
2023-05-15T05:49:35.850Z,102076.00
2023-05-15T05:52:25.224Z,102086.38
2023-05-15T05:55:14.573Z,102075.19
2023-05-15T05:58:08.564Z,102064.06
2023-05-15T06:01:05.848Z,102067.91
2023-05-15T06:03:56.118Z,102080.22
2023-05-15T06:06:45.427Z,102075.63
2023-05-15T06:09:34.826Z,102080.84
2023-05-15T06:12:24.067Z,102074.28
2023-05-15T06:15:13.787Z,102079.81
2023-05-15T06:18:04.702Z,102067.00
2023-05-15T06:20:54.122Z,102088.03
2023-05-15T06:23:46.165Z,102077.66
2023-05-15T06:26:35.794Z,102084.22
2023-05-15T06:29:28.840Z,102088.59
2023-05-15T06:32:18.248Z,102085.34
2023-05-15T06:35:11.419Z,102094.38
2023-05-15T06:38:02.864Z,102089.75
2023-05-15T06:40:52.093Z,102091.66
2023-05-15T06:43:41.380Z,102087.28
2023-05-15T06:46:30.751Z,102091.94
2023-05-15T06:49:20.162Z,102083.25
2023-05-15T06:52:11.224Z,102084.34
2023-05-15T06:55:00.944Z,102087.63
2023-05-15T06:57:50.506Z,102075.59
2023-05-15T07:00:40.414Z,102082.44
2023-05-15T07:03:29.709Z,102070.66
2023-05-15T07:06:19.153Z,102086.50
2023-05-15T07:09:10.096Z,102078.56
2023-05-15T07:11:59.499Z,102083.44
2023-05-15T07:14:48.844Z,102087.81
2023-05-15T07:17:38.271Z,102084.28
2023-05-15T07:20:30.326Z,102079.31
2023-05-15T07:23:21.604Z,102091.03
2023-05-15T07:26:16.837Z,102089.69
2023-05-15T07:29:10.341Z,102097.03
2023-05-15T07:32:00.326Z,102103.25
2023-05-15T07:34:50.220Z,102104.56
2023-05-15T07:37:39.739Z,102106.06
2023-05-15T07:40:29.055Z,102105.06
2023-05-15T07:43:19.809Z,102112.41
2023-05-15T07:46:09.135Z,102121.38
2023-05-15T07:48:58.473Z,102106.91
2023-05-15T07:51:47.795Z,102103.47
2023-05-15T07:54:37.207Z,102115.22
2023-05-15T07:57:26.872Z,102109.41
2023-05-15T08:00:20.226Z,102108.09
2023-05-15T08:03:09.760Z,102114.03
2023-05-15T08:05:59.812Z,102113.31
2023-05-15T08:08:49.228Z,102094.78
2023-05-15T08:11:38.842Z,102103.63
2023-05-15T08:14:28.119Z,102105.53
2023-05-15T08:17:19.683Z,102098.06
2023-05-15T08:20:10.725Z,102118.06
2023-05-15T08:22:59.921Z,102117.16
2023-05-15T08:25:49.271Z,102116.16
2023-05-15T08:28:38.520Z,102119.34
2023-05-15T08:31:28.051Z,102118.22
2023-05-15T08:34:19.041Z,102120.50
2023-05-15T08:37:08.557Z,102125.59
2023-05-15T08:39:58.093Z,102108.63
2023-05-15T08:42:54.200Z,102103.69
2023-05-15T08:45:44.773Z,102120.22
2023-05-15T08:48:38.449Z,102124.47
2023-05-15T08:51:29.460Z,102121.31
2023-05-15T08:54:19.148Z,102126.28
2023-05-15T08:57:10.575Z,102120.66
2023-05-15T09:00:00.490Z,102118.63
2023-05-15T09:02:49.962Z,102129.66
2023-05-15T09:05:40.255Z,102116.00
2023-05-15T09:08:33.829Z,102124.94
2023-05-15T09:11:25.351Z,102125.66
2023-05-15T09:14:14.982Z,102125.13
2023-05-15T09:17:04.316Z,102127.09
2023-05-15T09:19:53.648Z,102119.91
2023-05-15T09:22:42.910Z,102128.53
2023-05-15T09:25:39.556Z,102124.78
2023-05-15T09:28:32.501Z,102132.66
2023-05-15T09:31:23.116Z,102084.22
2023-05-15T09:34:12.395Z,102124.78
2023-05-15T09:37:04.498Z,102109.47
2023-05-15T09:39:54.151Z,102133.53
2023-05-15T09:42:52.497Z,102132.81
2023-05-15T09:45:41.866Z,102133.94
2023-05-15T09:48:32.052Z,102137.00
2023-05-15T09:51:22.192Z,102128.13
2023-05-15T09:54:17.264Z,102128.88
2023-05-15T09:57:10.756Z,102120.25
2023-05-15T10:00:05.296Z,102131.28
2023-05-15T10:03:03.783Z,102123.84
2023-05-15T10:06:01.507Z,102136.69
2023-05-15T10:08:54.672Z,102126.13
2023-05-15T10:11:45.535Z,102120.91
2023-05-15T10:14:35.124Z,102130.19
2023-05-15T10:17:26.446Z,102129.72
2023-05-15T10:20:17.259Z,102127.28
2023-05-15T10:23:11.733Z,102115.78
2023-05-15T10:26:05.516Z,102128.81
2023-05-15T10:28:56.276Z,102123.72
2023-05-15T10:31:46.114Z,102125.09
2023-05-15T10:34:37.154Z,102129.22
2023-05-15T10:37:27.299Z,102132.06
2023-05-15T10:40:18.656Z,102121.66
2023-05-15T10:43:11.604Z,102129.47
2023-05-15T10:46:00.620Z,102135.41
2023-05-15T10:48:50.155Z,102138.97
2023-05-15T10:51:43.564Z,102137.03
2023-05-15T10:54:32.848Z,102135.88
2023-05-15T10:57:23.275Z,102139.25
2023-05-15T11:00:29.603Z,102150.59
2023-05-15T11:03:48.563Z,102143.81
2023-05-15T11:06:42.726Z,102147.09
2023-05-15T11:09:38.954Z,102146.28
2023-05-15T11:12:48.324Z,102151.16
2023-05-15T11:15:45.436Z,102148.72
2023-05-15T11:18:39.241Z,102157.03
2023-05-15T11:21:33.552Z,102141.06
2023-05-15T11:24:29.120Z,102146.78
2023-05-15T11:27:21.591Z,102141.28
2023-05-15T11:30:18.117Z,102134.91
2023-05-15T11:33:12.153Z,102133.31
2023-05-15T11:36:02.390Z,102138.56
2023-05-15T11:38:53.874Z,102142.50
2023-05-15T11:41:45.152Z,102140.94
2023-05-15T11:44:34.434Z,102143.84
2023-05-15T11:47:24.415Z,102147.38
2023-05-15T11:50:13.993Z,102145.03
2023-05-15T11:53:09.059Z,102141.03
2023-05-15T11:55:58.489Z,102147.31
2023-05-15T11:58:52.037Z,102130.63
2023-05-15T12:01:44.140Z,102127.53
2023-05-15T12:04:36.085Z,102141.28
2023-05-15T12:07:25.582Z,102148.31
2023-05-15T12:10:15.644Z,102137.47
2023-05-15T12:13:05.270Z,102127.91
2023-05-15T12:15:57.354Z,102128.56
2023-05-15T12:18:49.137Z,102132.47
2023-05-15T12:21:43.286Z,102133.06
2023-05-15T12:24:32.565Z,102129.94
2023-05-15T12:27:23.823Z,102125.16
2023-05-15T12:30:15.254Z,102130.63
2023-05-15T12:33:08.203Z,102122.53
2023-05-15T12:36:01.271Z,102134.28
2023-05-15T12:38:51.422Z,102130.00
2023-05-15T12:41:40.707Z,102144.53
2023-05-15T12:44:30.086Z,102130.34
2023-05-15T12:47:24.953Z,102130.13
2023-05-15T12:50:21.164Z,102119.69
2023-05-15T12:53:10.985Z,102129.88
2023-05-15T12:56:00.344Z,102131.50
2023-05-15T12:58:49.910Z,102132.53
2023-05-15T13:01:39.341Z,102147.31
2023-05-15T13:04:29.137Z,102131.09
2023-05-15T13:07:19.767Z,102141.44
2023-05-15T13:10:10.706Z,102143.00
2023-05-15T13:13:00.255Z,102144.06
2023-05-15T13:15:51.226Z,102132.72
2023-05-15T13:18:40.648Z,102132.69
2023-05-15T13:21:29.949Z,102138.97
2023-05-15T13:24:20.677Z,102128.88
2023-05-15T13:27:09.922Z,102134.91
2023-05-15T13:29:59.156Z,102123.91
2023-05-15T13:32:48.852Z,102126.47
2023-05-15T13:35:38.835Z,102134.91
2023-05-15T13:38:28.079Z,102133.84
2023-05-15T13:41:18.877Z,102132.06
2023-05-15T13:44:08.217Z,102130.75
2023-05-15T13:46:57.499Z,102130.31
2023-05-15T13:49:47.606Z,102132.94
2023-05-15T13:52:37.225Z,102134.00
2023-05-15T13:55:26.774Z,102128.41
2023-05-15T13:58:17.474Z,102135.41
2023-05-15T14:01:08.200Z,102136.78
2023-05-15T14:03:57.556Z,102140.47
2023-05-15T14:06:46.874Z,102129.00
2023-05-15T14:09:36.321Z,102139.88
2023-05-15T14:12:25.845Z,102144.13
2023-05-15T14:15:16.504Z,102141.31
2023-05-15T14:18:05.927Z,102145.31
2023-05-15T14:20:55.281Z,102141.34
2023-05-15T14:23:44.541Z,102144.06
2023-05-15T14:26:34.135Z,102136.59
2023-05-15T14:29:23.524Z,102139.41
2023-05-15T14:32:14.406Z,102148.88
2023-05-15T14:35:03.971Z,102135.38
2023-05-15T14:37:59.581Z,102141.25
2023-05-15T14:40:48.829Z,102133.44
2023-05-15T14:43:38.851Z,102125.00
2023-05-15T14:46:31.324Z,102130.34
2023-05-15T14:49:24.538Z,102124.81
2023-05-15T14:52:16.509Z,102123.38
2023-05-15T14:55:09.573Z,102116.50
2023-05-15T14:58:03.009Z,102129.72
2023-05-15T15:00:54.977Z,102129.88
2023-05-15T15:03:44.446Z,102129.88
2023-05-15T15:06:35.078Z,102125.31
2023-05-15T15:09:25.526Z,102114.69
2023-05-15T15:12:15.609Z,102128.34
2023-05-15T15:15:14.573Z,102127.47
2023-05-15T15:18:09.855Z,102125.13
2023-05-15T15:21:01.957Z,102127.06
2023-05-15T15:24:00.509Z,102121.66
2023-05-15T15:26:52.143Z,102120.34
2023-05-15T15:29:41.478Z,102104.78
2023-05-15T15:32:30.930Z,102112.63
2023-05-15T15:35:20.355Z,102115.16
2023-05-15T15:38:13.530Z,102120.91
2023-05-15T15:41:05.654Z,102113.41
2023-05-15T15:43:56.623Z,102120.06
2023-05-15T15:46:48.035Z,102116.63
2023-05-15T15:49:40.625Z,102115.91
2023-05-15T15:52:35.114Z,102118.22
2023-05-15T15:55:25.127Z,102123.72
2023-05-15T15:58:16.908Z,102108.72
2023-05-15T16:01:13.472Z,102115.91
2023-05-15T16:04:02.993Z,102115.75
2023-05-15T16:06:52.256Z,102112.50
2023-05-15T16:09:41.534Z,102110.19
2023-05-15T16:12:33.522Z,102098.06
2023-05-15T16:15:24.655Z,102096.31
2023-05-15T16:18:21.760Z,102095.00
2023-05-15T16:21:16.954Z,102107.91
2023-05-15T16:24:07.144Z,102116.59
2023-05-15T16:27:05.540Z,102106.50
2023-05-15T16:29:58.078Z,102113.91
2023-05-15T16:32:54.081Z,102115.88
2023-05-15T16:35:52.575Z,102118.75
2023-05-15T16:38:42.052Z,102122.69
2023-05-15T16:41:31.421Z,102122.69
2023-05-15T16:44:20.615Z,102121.41
2023-05-15T16:47:18.400Z,102121.84
2023-05-15T16:50:10.781Z,102125.25
2023-05-15T16:53:02.965Z,102120.53
2023-05-15T16:55:55.668Z,102123.16
2023-05-15T16:58:44.932Z,102125.44
2023-05-15T17:01:34.240Z,102132.13
2023-05-15T17:04:24.899Z,102131.47
2023-05-15T17:07:15.855Z,102125.47
2023-05-15T17:10:07.968Z,102133.91
2023-05-15T17:13:00.098Z,102140.13
2023-05-15T17:15:49.909Z,102132.16
2023-05-15T17:18:39.981Z,102132.13
2023-05-15T17:21:29.583Z,102135.91
2023-05-15T17:24:20.483Z,102134.22
2023-05-15T17:27:18.184Z,102118.75
2023-05-15T17:30:09.609Z,102133.84
2023-05-15T17:33:00.387Z,102134.25
2023-05-15T17:35:51.458Z,102141.03
2023-05-15T17:38:40.707Z,102127.31
2023-05-15T17:41:31.501Z,102130.47
2023-05-15T17:44:21.337Z,102140.09
2023-05-15T17:47:11.149Z,102142.22
2023-05-15T17:50:00.433Z,102133.34
2023-05-15T17:52:49.906Z,102138.41
2023-05-15T17:55:39.322Z,102142.50
2023-05-15T17:58:29.965Z,102145.28
2023-05-15T18:01:20.060Z,102142.91
2023-05-15T18:04:09.631Z,102138.00
2023-05-15T18:06:59.067Z,102148.44
2023-05-15T18:09:48.519Z,102162.41
2023-05-15T18:12:37.855Z,102156.56
2023-05-15T18:15:28.730Z,102146.31
2023-05-15T18:18:18.393Z,102156.72
2023-05-15T18:21:07.702Z,102162.28
2023-05-15T18:23:57.056Z,102159.00
2023-05-15T18:26:46.866Z,102158.19
2023-05-15T18:29:36.193Z,102161.94
2023-05-15T18:32:26.814Z,102161.41
2023-05-15T18:35:16.148Z,102162.41
2023-05-15T18:38:05.559Z,102159.97
2023-05-15T18:40:54.918Z,102150.03
2023-05-15T18:43:44.215Z,102160.94
2023-05-15T18:46:34.227Z,102155.06
2023-05-15T18:49:24.933Z,102153.63
2023-05-15T18:52:14.421Z,102164.69
2023-05-15T18:55:03.751Z,102166.56
2023-05-15T18:57:53.074Z,102165.25
2023-05-15T19:00:42.426Z,102166.53
2023-05-15T19:03:31.796Z,102164.19
2023-05-15T19:06:22.443Z,102170.22
2023-05-15T19:09:12.015Z,102169.22
2023-05-15T19:12:02.499Z,102158.91
2023-05-15T19:14:51.795Z,102167.31
2023-05-15T19:17:41.050Z,102169.22
2023-05-15T19:20:30.382Z,102177.03
2023-05-15T19:23:21.650Z,102175.84
2023-05-15T19:26:11.581Z,102156.28
2023-05-15T19:29:00.908Z,102179.38
2023-05-15T19:31:50.293Z,102177.25
2023-05-15T19:34:39.603Z,102185.00
2023-05-15T19:37:29.110Z,102190.69
2023-05-15T19:40:19.912Z,102196.22
2023-05-15T19:43:11.396Z,102182.84
2023-05-15T19:46:00.710Z,102190.47
2023-05-15T19:48:50.108Z,102202.78
2023-05-15T19:51:41.151Z,102192.47
2023-05-15T19:54:30.499Z,102195.88
2023-05-15T19:57:21.250Z,102206.75
2023-05-15T20:00:12.586Z,102207.84
2023-05-15T20:03:02.007Z,102209.59
2023-05-15T20:05:52.133Z,102193.13
2023-05-15T20:08:42.086Z,102204.56
2023-05-15T20:11:31.920Z,102207.84
2023-05-15T20:14:22.582Z,102202.53
2023-05-15T20:17:12.049Z,102215.09
2023-05-15T20:20:02.300Z,102217.03
2023-05-15T20:22:51.796Z,102211.47
2023-05-15T20:25:46.308Z,102214.00
2023-05-15T20:28:39.041Z,102220.16
2023-05-15T20:31:29.965Z,102214.66
2023-05-15T20:34:23.512Z,102219.06
2023-05-15T20:37:13.968Z,102227.06
2023-05-15T20:40:05.325Z,102236.34
2023-05-15T20:42:54.605Z,102227.28
2023-05-15T20:45:44.101Z,102243.72
2023-05-15T20:48:34.752Z,102246.78
2023-05-15T20:51:24.093Z,102251.56
2023-05-15T20:54:13.462Z,102249.34
2023-05-15T20:57:02.911Z,102258.03
2023-05-15T20:59:52.619Z,102265.06
2023-05-15T21:02:41.991Z,102264.75
2023-05-15T21:05:32.838Z,102272.41
2023-05-15T21:08:22.210Z,102277.63
2023-05-15T21:11:11.500Z,102272.63
2023-05-15T21:14:01.254Z,102272.22
2023-05-15T21:16:50.495Z,102271.81
2023-05-15T21:19:39.828Z,102277.94
2023-05-15T21:22:30.679Z,102275.16
2023-05-15T21:25:20.245Z,102269.22
2023-05-15T21:28:09.557Z,102283.94
2023-05-15T21:31:00.538Z,102276.03
2023-05-15T21:33:49.773Z,102280.88
2023-05-15T21:36:39.081Z,102287.00
2023-05-15T21:39:29.756Z,102288.22
2023-05-15T21:42:19.234Z,102289.22
2023-05-15T21:45:09.583Z,102276.50
2023-05-15T21:47:58.901Z,102295.56
2023-05-15T21:50:48.254Z,102297.13
2023-05-15T21:53:37.463Z,102294.53
2023-05-15T21:56:28.276Z,102304.44
2023-05-15T21:59:17.464Z,102303.69
2023-05-15T22:02:07.208Z,102309.78
2023-05-15T22:04:56.719Z,102319.72
2023-05-15T22:07:46.236Z,102306.88
2023-05-15T22:10:35.574Z,102314.03
2023-05-15T22:13:26.387Z,102302.63
2023-05-15T22:16:20.518Z,102312.00
2023-05-15T22:19:18.470Z,102306.63
2023-05-15T22:22:18.083Z,102322.63
2023-05-15T22:25:08.772Z,102312.59
2023-05-15T22:27:58.801Z,102316.50
2023-05-15T22:30:49.621Z,102328.91
2023-05-15T22:33:39.006Z,102322.13
2023-05-15T22:36:28.282Z,102324.41
2023-05-15T22:39:17.614Z,102329.69
2023-05-15T22:42:08.194Z,102321.47
2023-05-15T22:44:57.966Z,102331.47
2023-05-15T22:47:49.204Z,102319.19
2023-05-15T22:50:38.461Z,102329.34
2023-05-15T22:53:28.140Z,102323.91
2023-05-15T22:56:17.442Z,102330.50
2023-05-15T22:59:06.837Z,102331.91
2023-05-15T23:02:00.119Z,102331.72
2023-05-15T23:04:50.797Z,102336.66
2023-05-15T23:07:40.069Z,102336.47
2023-05-15T23:10:29.608Z,102345.28
2023-05-15T23:13:19.325Z,102346.97
2023-05-15T23:16:10.002Z,102345.09
2023-05-15T23:18:59.697Z,102340.19
2023-05-15T23:21:50.992Z,102343.50
2023-05-15T23:24:40.546Z,102341.84
2023-05-15T23:27:29.827Z,102349.56
2023-05-15T23:30:20.035Z,102342.47
2023-05-15T23:33:09.549Z,102331.81
2023-05-15T23:35:59.406Z,102356.53
2023-05-15T23:38:50.070Z,102351.34
2023-05-15T23:41:39.315Z,102355.19
2023-05-15T23:44:28.561Z,102359.03
2023-05-15T23:47:18.148Z,102348.66
2023-05-15T23:50:09.353Z,102352.78
2023-05-15T23:52:58.620Z,102351.44
2023-05-15T23:55:49.372Z,102358.59
2023-05-15T23:58:38.661Z,102347.09
